createdAt,value
2023-01-08T00:01:44.977Z,99794.41
2023-01-08T00:04:11.463Z,99787.59
2023-01-08T00:06:37.915Z,99792.44
2023-01-08T00:09:04.410Z,99793.50
2023-01-08T00:11:30.862Z,99780.91
2023-01-08T00:13:57.250Z,99772.63
2023-01-08T00:16:23.739Z,99775.88
2023-01-08T00:18:50.220Z,99766.19
2023-01-08T00:21:16.737Z,99757.84
2023-01-08T00:23:43.210Z,99748.56
2023-01-08T00:26:10.647Z,99767.94
2023-01-08T00:28:38.267Z,99764.63
2023-01-08T00:31:06.137Z,99765.34
2023-01-08T00:33:33.078Z,99774.53
2023-01-08T00:35:59.973Z,99762.81
2023-01-08T00:38:27.721Z,99752.53
2023-01-08T00:40:54.550Z,99764.94
2023-01-08T00:43:21.197Z,99767.97
2023-01-08T00:45:47.748Z,99759.19
2023-01-08T00:48:14.204Z,99748.53
2023-01-08T00:50:40.603Z,99736.38
2023-01-08T00:53:07.013Z,99739.13
2023-01-08T00:55:33.411Z,99736.59
2023-01-08T00:57:59.832Z,99726.13
2023-01-08T01:00:26.331Z,99739.06
2023-01-08T01:02:52.744Z,99747.47
2023-01-08T01:05:19.346Z,99732.47
2023-01-08T01:07:46.279Z,99731.78
2023-01-08T01:10:15.511Z,99730.59
2023-01-08T01:12:42.370Z,99739.75
2023-01-08T01:15:12.137Z,99763.47
2023-01-08T01:17:39.716Z,99760.16
2023-01-08T01:20:08.327Z,99759.06
2023-01-08T01:22:34.987Z,99761.22
2023-01-08T01:25:01.597Z,99755.56
2023-01-08T01:27:28.123Z,99739.44
2023-01-08T01:29:54.843Z,99730.28
2023-01-08T01:32:21.280Z,99734.06
2023-01-08T01:34:47.695Z,99736.69
2023-01-08T01:37:15.592Z,99739.59
2023-01-08T01:39:49.008Z,99734.53
2023-01-08T01:42:36.477Z,99726.06
2023-01-08T01:45:17.108Z,99718.69
2023-01-08T01:47:47.617Z,99727.19
2023-01-08T01:50:21.624Z,99725.97
2023-01-08T01:53:26.464Z,99722.13
2023-01-08T01:55:53.544Z,99718.22
2023-01-08T01:58:26.082Z,99719.81
2023-01-08T02:00:54.165Z,99718.09
2023-01-08T02:03:24.604Z,99716.66
2023-01-08T02:05:56.192Z,99717.50
2023-01-08T02:08:40.109Z,99714.84
2023-01-08T02:11:12.760Z,99703.97
2023-01-08T02:13:45.435Z,99706.38
2023-01-08T02:16:21.565Z,99690.19
2023-01-08T02:18:53.170Z,99694.53
2023-01-08T02:21:43.993Z,99686.56
2023-01-08T02:24:23.840Z,99680.28
2023-01-08T02:26:55.196Z,99696.00
2023-01-08T02:29:26.029Z,99689.44
2023-01-08T02:31:52.604Z,99678.13
2023-01-08T02:34:19.019Z,99685.72
2023-01-08T02:36:51.279Z,99690.19
2023-01-08T02:39:49.152Z,99693.44
2023-01-08T02:42:38.654Z,99691.03
2023-01-08T02:45:23.854Z,99699.63
2023-01-08T02:47:55.698Z,99705.19
2023-01-08T02:50:22.172Z,99697.34
2023-01-08T02:52:59.645Z,99695.53
2023-01-08T02:55:28.262Z,99688.03
2023-01-08T02:57:55.249Z,99684.56
2023-01-08T03:00:22.862Z,99676.75
2023-01-08T03:02:55.483Z,99674.81
2023-01-08T03:05:27.898Z,99682.66
2023-01-08T03:07:55.613Z,99688.72
2023-01-08T03:10:26.038Z,99693.81
2023-01-08T03:13:02.292Z,99703.16
2023-01-08T03:15:35.234Z,99695.78
2023-01-08T03:18:09.448Z,99694.06
2023-01-08T03:20:37.960Z,99695.53
2023-01-08T03:23:09.285Z,99698.81
2023-01-08T03:25:39.952Z,99687.91
2023-01-08T03:28:11.707Z,99679.34
2023-01-08T03:30:41.646Z,99680.44
2023-01-08T03:33:11.208Z,99687.06
2023-01-08T03:35:41.468Z,99684.84
2023-01-08T03:38:20.162Z,99692.72
2023-01-08T03:40:52.585Z,99682.19
2023-01-08T03:43:20.380Z,99688.03
2023-01-08T03:45:53.733Z,99691.63
2023-01-08T03:48:21.778Z,99689.84
2023-01-08T03:50:49.228Z,99687.03
2023-01-08T03:53:15.772Z,99683.50
2023-01-08T03:55:42.649Z,99684.06
2023-01-08T03:58:09.217Z,99676.59
2023-01-08T04:00:35.809Z,99670.81
2023-01-08T04:03:05.008Z,99669.25
2023-01-08T04:05:32.195Z,99670.19
2023-01-08T04:07:58.801Z,99660.91
2023-01-08T04:10:25.954Z,99669.22
2023-01-08T04:12:52.699Z,99660.19
2023-01-08T04:15:20.537Z,99656.75
2023-01-08T04:17:46.943Z,99649.31
2023-01-08T04:20:13.402Z,99646.75
2023-01-08T04:22:39.890Z,99642.00
2023-01-08T04:25:06.966Z,99642.09
2023-01-08T04:27:33.352Z,99631.59
2023-01-08T04:29:59.829Z,99623.97
2023-01-08T04:32:26.229Z,99620.47
2023-01-08T04:34:52.641Z,99621.69
2023-01-08T04:37:19.082Z,99625.72
2023-01-08T04:39:45.538Z,99613.75
2023-01-08T04:42:11.993Z,99608.03
2023-01-08T04:44:38.483Z,99617.13
2023-01-08T04:47:04.905Z,99614.78
2023-01-08T04:49:31.301Z,99600.41
2023-01-08T04:51:57.810Z,99602.59
2023-01-08T04:54:24.336Z,99607.31
2023-01-08T04:56:51.824Z,99602.28
2023-01-08T04:59:18.389Z,99602.25
2023-01-08T05:01:44.962Z,99598.88
2023-01-08T05:04:11.686Z,99603.22
2023-01-08T05:06:38.158Z,99595.88
2023-01-08T05:09:04.581Z,99593.16
2023-01-08T05:11:31.021Z,99591.88
2023-01-08T05:13:57.993Z,99587.06
2023-01-08T05:16:24.524Z,99590.31
2023-01-08T05:18:51.160Z,99593.75
2023-01-08T05:21:17.831Z,99581.34
2023-01-08T05:23:47.084Z,99589.50
2023-01-08T05:26:13.938Z,99587.53
2023-01-08T05:28:40.474Z,99589.16
2023-01-08T05:31:06.953Z,99593.28
2023-01-08T05:33:33.446Z,99589.13
2023-01-08T05:35:59.899Z,99591.41
2023-01-08T05:38:26.319Z,99596.44
2023-01-08T05:40:53.357Z,99586.63
2023-01-08T05:43:20.013Z,99582.13
2023-01-08T05:45:46.453Z,99583.09
2023-01-08T05:48:12.874Z,99595.81
2023-01-08T05:50:39.303Z,99585.91
2023-01-08T05:53:07.612Z,99578.06
2023-01-08T05:55:34.416Z,99584.63
2023-01-08T05:58:02.680Z,99581.28
2023-01-08T06:00:29.723Z,99578.50
2023-01-08T06:02:56.178Z,99583.19
2023-01-08T06:05:22.799Z,99579.91
2023-01-08T06:07:49.312Z,99580.56
2023-01-08T06:10:15.901Z,99578.38
2023-01-08T06:12:42.538Z,99577.78
2023-01-08T06:15:10.216Z,99576.28
2023-01-08T06:17:36.666Z,99579.28
2023-01-08T06:20:03.492Z,99578.88
2023-01-08T06:22:30.181Z,99582.28
2023-01-08T06:24:56.649Z,99575.91
2023-01-08T06:27:23.076Z,99581.25
2023-01-08T06:29:49.524Z,99588.56
2023-01-08T06:32:16.106Z,99588.69
2023-01-08T06:34:42.565Z,99581.50
2023-01-08T06:37:08.995Z,99590.19
2023-01-08T06:39:35.488Z,99584.16
2023-01-08T06:42:02.071Z,99580.00
2023-01-08T06:44:28.498Z,99585.28
2023-01-08T06:46:55.004Z,99582.59
2023-01-08T06:49:22.677Z,99587.69
2023-01-08T06:51:49.096Z,99582.88
2023-01-08T06:54:15.532Z,99580.31
2023-01-08T06:56:53.055Z,99580.06
2023-01-08T06:59:20.035Z,99579.38
2023-01-08T07:01:46.626Z,99581.69
2023-01-08T07:04:13.148Z,99583.19
2023-01-08T07:06:39.648Z,99577.09
2023-01-08T07:09:06.090Z,99583.88
2023-01-08T07:11:33.489Z,99582.66
2023-01-08T07:13:59.927Z,99582.72
2023-01-08T07:16:26.404Z,99584.84
2023-01-08T07:18:52.862Z,99590.69
2023-01-08T07:21:20.967Z,99580.44
2023-01-08T07:23:49.412Z,99580.44
2023-01-08T07:26:15.917Z,99579.38
2023-01-08T07:28:42.452Z,99588.44
2023-01-08T07:31:09.709Z,99582.63
2023-01-08T07:33:36.528Z,99584.38
2023-01-08T07:36:02.992Z,99586.78
2023-01-08T07:38:29.476Z,99592.50
2023-01-08T07:40:57.951Z,99597.84
2023-01-08T07:43:25.167Z,99599.28
2023-01-08T07:45:51.759Z,99602.28
2023-01-08T07:48:18.213Z,99595.28
2023-01-08T07:50:45.068Z,99604.56
2023-01-08T07:53:13.561Z,99596.53
2023-01-08T07:55:40.047Z,99606.66
2023-01-08T07:58:11.198Z,99598.09
2023-01-08T08:00:38.337Z,99609.34
2023-01-08T08:03:11.394Z,99612.06
2023-01-08T08:05:38.355Z,99602.06
2023-01-08T08:08:12.633Z,99600.88
2023-01-08T08:10:40.552Z,99601.00
2023-01-08T08:13:07.521Z,99593.13
2023-01-08T08:15:35.352Z,99600.63
2023-01-08T08:18:02.720Z,99600.25
2023-01-08T08:20:29.407Z,99591.72
2023-01-08T08:23:02.753Z,99595.41
2023-01-08T08:25:29.549Z,99603.16
2023-01-08T08:27:58.387Z,99596.53
2023-01-08T08:30:26.673Z,99595.09
2023-01-08T08:32:54.302Z,99596.63
2023-01-08T08:35:22.136Z,99598.72
2023-01-08T08:37:48.651Z,99599.56
2023-01-08T08:40:15.099Z,99591.44
2023-01-08T08:42:41.539Z,99594.09
2023-01-08T08:45:08.448Z,99587.94
2023-01-08T08:47:34.915Z,99591.22
2023-01-08T08:50:02.197Z,99594.38
2023-01-08T08:52:30.279Z,99588.94
2023-01-08T08:54:56.713Z,99590.59
2023-01-08T08:57:24.282Z,99585.88
2023-01-08T08:59:50.696Z,99585.97
2023-01-08T09:02:17.304Z,99575.97
2023-01-08T09:04:43.800Z,99588.19
2023-01-08T09:07:10.322Z,99590.13
2023-01-08T09:09:36.697Z,99575.13
2023-01-08T09:12:04.050Z,99572.13
2023-01-08T09:14:30.442Z,99567.16
2023-01-08T09:16:56.978Z,99564.84
2023-01-08T09:19:23.525Z,99569.91
2023-01-08T09:21:50.866Z,99564.59
2023-01-08T09:24:17.407Z,99566.75
2023-01-08T09:26:43.841Z,99559.75
2023-01-08T09:29:10.408Z,99558.69
2023-01-08T09:31:36.918Z,99569.47
2023-01-08T09:34:03.530Z,99572.09
2023-01-08T09:36:29.937Z,99569.22
2023-01-08T09:38:56.378Z,99581.38
2023-01-08T09:41:28.357Z,99582.16
2023-01-08T09:43:58.063Z,99576.19
2023-01-08T09:46:27.395Z,99569.50
2023-01-08T09:48:58.626Z,99567.13
2023-01-08T09:51:33.012Z,99566.81
2023-01-08T09:53:59.696Z,99561.94
2023-01-08T09:56:26.935Z,99552.31
2023-01-08T09:58:55.589Z,99556.72
2023-01-08T10:01:26.326Z,99556.16
2023-01-08T10:03:58.248Z,99560.09
2023-01-08T10:06:25.473Z,99562.13
2023-01-08T10:08:52.612Z,99558.41
2023-01-08T10:11:20.115Z,99552.47
2023-01-08T10:13:52.616Z,99549.13
2023-01-08T10:16:30.390Z,99550.88
2023-01-08T10:18:58.585Z,99534.41
2023-01-08T10:21:30.954Z,99529.59
2023-01-08T10:23:57.405Z,99518.94
2023-01-08T10:26:33.579Z,99524.44
2023-01-08T10:29:14.105Z,99538.91
2023-01-08T10:31:46.265Z,99532.44
2023-01-08T10:34:23.999Z,99524.28
2023-01-08T10:36:51.895Z,99534.94
2023-01-08T10:39:25.611Z,99544.81
2023-01-08T10:41:55.362Z,99542.41
2023-01-08T10:44:23.501Z,99544.84
2023-01-08T10:46:55.068Z,99541.81
2023-01-08T10:49:33.376Z,99540.13
2023-01-08T10:52:00.729Z,99554.44
2023-01-08T10:54:39.095Z,99545.69
2023-01-08T10:57:30.890Z,99544.59
2023-01-08T10:59:57.374Z,99526.72
2023-01-08T11:02:32.606Z,99524.75
2023-01-08T11:04:59.377Z,99528.06
2023-01-08T11:07:27.916Z,99528.31
2023-01-08T11:09:54.974Z,99527.72
2023-01-08T11:12:33.818Z,99511.78
2023-01-08T11:15:00.687Z,99516.19
2023-01-08T11:17:27.990Z,99514.56
2023-01-08T11:19:55.871Z,99503.38
2023-01-08T11:22:26.001Z,99498.97
2023-01-08T11:24:54.105Z,99503.03
2023-01-08T11:27:30.664Z,99501.19
2023-01-08T11:30:21.019Z,99493.34
2023-01-08T11:32:54.812Z,99488.25
2023-01-08T11:35:26.074Z,99484.88
2023-01-08T11:37:53.952Z,99473.06
2023-01-08T11:40:31.994Z,99464.91
2023-01-08T11:43:13.150Z,99465.34
2023-01-08T11:46:03.973Z,99462.75
2023-01-08T11:48:55.054Z,99455.13
2023-01-08T11:52:21.390Z,99450.09
2023-01-08T11:55:12.451Z,99447.81
2023-01-08T11:57:52.129Z,99432.44
2023-01-08T12:01:06.204Z,99429.66
2023-01-08T12:04:20.033Z,99419.53
2023-01-08T12:07:09.497Z,99426.34
2023-01-08T12:09:41.996Z,99421.50
2023-01-08T12:12:41.109Z,99415.28
2023-01-08T12:15:33.123Z,99403.47
2023-01-08T12:18:02.712Z,99408.09
2023-01-08T12:20:46.280Z,99401.59
2023-01-08T12:23:27.879Z,99406.59
2023-01-08T12:25:57.373Z,99395.25
2023-01-08T12:28:42.103Z,99400.91
2023-01-08T12:31:18.710Z,99404.41
2023-01-08T12:33:50.818Z,99398.00
2023-01-08T12:36:37.063Z,99387.59
2023-01-08T12:39:10.464Z,99382.78
2023-01-08T12:41:39.776Z,99380.00
2023-01-08T12:44:11.529Z,99377.84
2023-01-08T12:46:43.277Z,99377.38
2023-01-08T12:49:16.085Z,99368.66
2023-01-08T12:51:51.325Z,99370.44
2023-01-08T12:55:03.086Z,99356.53
2023-01-08T12:57:38.828Z,99360.81
2023-01-08T13:00:36.222Z,99360.31
2023-01-08T13:03:06.309Z,99358.53
2023-01-08T13:05:35.862Z,99355.06
2023-01-08T13:08:28.472Z,99354.44
2023-01-08T13:10:55.483Z,99350.88
2023-01-08T13:13:36.561Z,99350.34
2023-01-08T13:16:22.140Z,99345.09
2023-01-08T13:19:21.915Z,99346.97
2023-01-08T13:21:54.708Z,99337.28
2023-01-08T13:24:30.165Z,99330.75
2023-01-08T13:27:08.985Z,99338.19
2023-01-08T13:29:42.598Z,99333.41
2023-01-08T13:32:30.767Z,99335.03
2023-01-08T13:35:15.660Z,99336.25
2023-01-08T13:37:47.137Z,99329.53
2023-01-08T13:40:35.072Z,99326.16
2023-01-08T13:43:02.619Z,99332.38
2023-01-08T13:45:30.675Z,99333.56
2023-01-08T13:47:57.552Z,99326.47
2023-01-08T13:50:28.644Z,99313.38
2023-01-08T13:52:58.986Z,99316.81
2023-01-08T13:55:30.464Z,99312.34
2023-01-08T13:58:00.035Z,99307.44
2023-01-08T14:00:31.217Z,99311.66
2023-01-08T14:02:57.837Z,99312.00
2023-01-08T14:05:34.594Z,99310.75
2023-01-08T14:08:01.327Z,99303.88
2023-01-08T14:10:30.995Z,99308.28
2023-01-08T14:13:08.940Z,99307.13
2023-01-08T14:15:35.914Z,99309.28
2023-01-08T14:18:04.763Z,99309.88
2023-01-08T14:20:38.200Z,99306.38
2023-01-08T14:23:21.760Z,99309.19
2023-01-08T14:25:49.569Z,99305.25
2023-01-08T14:28:19.038Z,99311.72
2023-01-08T14:30:54.369Z,99314.06
2023-01-08T14:33:24.818Z,99318.38
2023-01-08T14:35:51.858Z,99323.13
2023-01-08T14:38:18.764Z,99324.06
2023-01-08T14:40:57.695Z,99325.34
2023-01-08T14:43:24.562Z,99319.31
2023-01-08T14:45:53.561Z,99315.00
2023-01-08T14:48:50.333Z,99306.72
2023-01-08T14:51:23.748Z,99315.66
2023-01-08T14:54:04.144Z,99315.81
2023-01-08T14:56:33.852Z,99302.34
2023-01-08T14:59:00.716Z,99310.41
2023-01-08T15:01:29.962Z,99317.22
2023-01-08T15:04:19.573Z,99310.03
2023-01-08T15:06:46.567Z,99307.75
2023-01-08T15:09:33.234Z,99307.00
2023-01-08T15:12:07.664Z,99298.88
2023-01-08T15:14:37.609Z,99297.13
2023-01-08T15:17:19.571Z,99286.91
2023-01-08T15:19:57.544Z,99285.53
2023-01-08T15:22:31.450Z,99286.19
2023-01-08T15:25:07.577Z,99278.41
2023-01-08T15:27:36.948Z,99281.22
2023-01-08T15:30:04.983Z,99281.78
2023-01-08T15:32:39.098Z,99268.84
2023-01-08T15:35:16.373Z,99268.66
2023-01-08T15:37:43.080Z,99280.53
2023-01-08T15:40:11.664Z,99274.13
2023-01-08T15:42:56.789Z,99273.66
2023-01-08T15:45:37.247Z,99270.47
2023-01-08T15:48:04.641Z,99272.91
2023-01-08T15:50:38.797Z,99272.19
2023-01-08T15:53:24.666Z,99272.75
2023-01-08T15:55:51.691Z,99274.81
2023-01-08T15:58:18.851Z,99268.34
2023-01-08T16:00:46.275Z,99263.03
2023-01-08T16:03:13.876Z,99272.28
2023-01-08T16:05:40.425Z,99262.56
2023-01-08T16:08:07.071Z,99268.66
2023-01-08T16:10:34.104Z,99263.03
2023-01-08T16:13:01.628Z,99260.91
2023-01-08T16:15:30.596Z,99262.94
2023-01-08T16:17:58.068Z,99253.69
2023-01-08T16:20:24.770Z,99256.56
2023-01-08T16:22:51.396Z,99250.03
2023-01-08T16:25:18.025Z,99253.75
2023-01-08T16:27:44.439Z,99248.66
2023-01-08T16:30:15.063Z,99241.91
2023-01-08T16:32:42.096Z,99243.59
2023-01-08T16:35:09.681Z,99238.53
2023-01-08T16:37:36.488Z,99242.81
2023-01-08T16:40:03.218Z,99243.81
2023-01-08T16:42:29.659Z,99237.84
2023-01-08T16:44:56.107Z,99233.88
2023-01-08T16:47:22.609Z,99223.66
2023-01-08T16:49:50.375Z,99228.88
2023-01-08T16:52:17.550Z,99227.75
2023-01-08T16:54:45.057Z,99228.91
2023-01-08T16:57:11.483Z,99224.06
2023-01-08T16:59:37.906Z,99228.56
2023-01-08T17:02:04.439Z,99232.19
2023-01-08T17:04:31.263Z,99227.50
2023-01-08T17:06:58.076Z,99230.75
2023-01-08T17:09:25.511Z,99231.72
2023-01-08T17:11:51.974Z,99229.69
2023-01-08T17:14:18.508Z,99231.84
2023-01-08T17:16:45.478Z,99236.66
2023-01-08T17:19:12.746Z,99234.72
2023-01-08T17:21:40.313Z,99229.78
2023-01-08T17:24:07.524Z,99227.59
2023-01-08T17:26:34.205Z,99227.34
2023-01-08T17:29:00.943Z,99231.03
2023-01-08T17:31:27.472Z,99234.53
2023-01-08T17:33:54.530Z,99222.28
2023-01-08T17:36:24.249Z,99227.91
2023-01-08T17:38:52.958Z,99222.34
2023-01-08T17:41:39.123Z,99221.22
2023-01-08T17:44:07.145Z,99225.66
2023-01-08T17:46:42.377Z,99231.97
2023-01-08T17:49:11.049Z,99215.03
2023-01-08T17:51:38.605Z,99230.47
2023-01-08T17:54:05.093Z,99223.66
2023-01-08T17:56:31.506Z,99224.22
2023-01-08T17:58:57.948Z,99220.47
2023-01-08T18:01:24.558Z,99217.50
2023-01-08T18:03:52.051Z,99212.72
2023-01-08T18:06:18.486Z,99216.41
2023-01-08T18:08:44.925Z,99216.91
2023-01-08T18:11:11.391Z,99216.31
2023-01-08T18:13:37.927Z,99212.56
2023-01-08T18:16:06.776Z,99210.09
2023-01-08T18:18:33.966Z,99212.03
2023-01-08T18:21:00.522Z,99209.13
2023-01-08T18:23:27.601Z,99210.31
2023-01-08T18:25:54.018Z,99211.56
2023-01-08T18:28:20.887Z,99209.47
2023-01-08T18:30:47.372Z,99211.34
2023-01-08T18:33:14.769Z,99200.13
2023-01-08T18:35:41.741Z,99201.25
2023-01-08T18:38:15.704Z,99200.88
2023-01-08T18:40:45.721Z,99195.41
2023-01-08T18:43:12.770Z,99198.38
2023-01-08T18:45:39.534Z,99188.88
2023-01-08T18:48:07.667Z,99192.69
2023-01-08T18:50:34.121Z,99195.03
2023-01-08T18:53:00.630Z,99186.16
2023-01-08T18:55:27.029Z,99177.78
2023-01-08T18:57:53.464Z,99185.75
2023-01-08T19:00:20.748Z,99190.09
2023-01-08T19:02:47.245Z,99181.41
2023-01-08T19:05:13.685Z,99188.28
2023-01-08T19:07:41.407Z,99181.25
2023-01-08T19:10:12.680Z,99180.84
2023-01-08T19:12:39.194Z,99172.19
2023-01-08T19:15:06.671Z,99167.91
2023-01-08T19:17:33.572Z,99171.31
2023-01-08T19:19:59.989Z,99169.72
2023-01-08T19:22:26.905Z,99170.84
2023-01-08T19:24:54.773Z,99178.75
2023-01-08T19:27:21.786Z,99179.16
2023-01-08T19:29:48.534Z,99159.75
2023-01-08T19:32:15.454Z,99161.38
2023-01-08T19:34:41.903Z,99161.31
2023-01-08T19:37:08.812Z,99150.56
2023-01-08T19:39:35.653Z,99156.59
2023-01-08T19:42:20.589Z,99156.03
2023-01-08T19:44:47.013Z,99142.34
2023-01-08T19:47:13.506Z,99130.78
2023-01-08T19:49:42.837Z,99134.03
2023-01-08T19:52:09.290Z,99143.22
2023-01-08T19:54:37.709Z,99137.22
2023-01-08T19:57:04.144Z,99141.00
2023-01-08T19:59:30.558Z,99144.88
2023-01-08T20:01:57.172Z,99134.09
2023-01-08T20:04:23.691Z,99129.63
2023-01-08T20:06:52.303Z,99129.72
2023-01-08T20:09:19.052Z,99132.28
2023-01-08T20:11:45.431Z,99128.94
2023-01-08T20:14:11.906Z,99126.47
2023-01-08T20:16:38.388Z,99126.47
2023-01-08T20:19:05.274Z,99119.09
2023-01-08T20:21:33.688Z,99120.91
2023-01-08T20:24:05.026Z,99114.50
2023-01-08T20:26:31.944Z,99113.34
2023-01-08T20:28:59.074Z,99116.22
2023-01-08T20:31:29.472Z,99111.91
2023-01-08T20:33:57.233Z,99108.81
2023-01-08T20:36:27.704Z,99099.44
2023-01-08T20:38:57.820Z,99098.47
2023-01-08T20:41:26.336Z,99095.31
2023-01-08T20:43:56.072Z,99098.03
2023-01-08T20:46:28.493Z,99094.59
2023-01-08T20:49:03.394Z,99093.28
2023-01-08T20:51:36.070Z,99087.16
2023-01-08T20:54:05.127Z,99094.16
2023-01-08T20:56:31.622Z,99093.72
2023-01-08T20:58:58.201Z,99087.75
2023-01-08T21:01:28.177Z,99084.63
2023-01-08T21:03:57.067Z,99068.44
2023-01-08T21:06:25.760Z,99079.00
2023-01-08T21:08:56.421Z,99080.88
2023-01-08T21:11:23.981Z,99077.38
2023-01-08T21:13:51.131Z,99065.94
2023-01-08T21:16:22.924Z,99066.94
2023-01-08T21:18:50.546Z,99071.22
2023-01-08T21:21:23.336Z,99060.25
2023-01-08T21:23:50.522Z,99059.53
2023-01-08T21:26:17.899Z,99051.72
2023-01-08T21:28:46.595Z,99056.16
2023-01-08T21:31:17.672Z,99049.88
2023-01-08T21:33:48.567Z,99055.84
2023-01-08T21:36:20.582Z,99047.09
2023-01-08T21:38:47.674Z,99047.63
2023-01-08T21:41:38.563Z,99044.94
2023-01-08T21:44:28.829Z,99042.00
2023-01-08T21:46:55.267Z,99035.03
2023-01-08T21:49:21.671Z,99034.56
2023-01-08T21:52:06.554Z,99028.78
2023-01-08T21:54:32.989Z,99018.44
2023-01-08T21:56:59.399Z,99018.22
2023-01-08T21:59:25.825Z,99013.13
2023-01-08T22:01:52.259Z,99013.03
2023-01-08T22:04:18.709Z,99006.50
2023-01-08T22:06:45.140Z,99008.94
2023-01-08T22:09:11.657Z,99012.13
2023-01-08T22:11:38.110Z,98999.09
2023-01-08T22:14:04.608Z,99003.63
2023-01-08T22:16:31.178Z,98995.59
2023-01-08T22:18:57.893Z,99000.53
2023-01-08T22:21:24.392Z,98994.25
2023-01-08T22:23:51.074Z,98993.81
2023-01-08T22:26:20.076Z,99000.06
2023-01-08T22:28:46.624Z,98984.66
2023-01-08T22:31:14.944Z,98983.94
2023-01-08T22:33:41.485Z,98976.41
2023-01-08T22:36:11.046Z,98973.22
2023-01-08T22:38:37.961Z,98967.41
2023-01-08T22:41:04.599Z,98951.50
2023-01-08T22:43:31.067Z,98940.34
2023-01-08T22:45:59.580Z,98946.97
2023-01-08T22:48:27.567Z,98945.81
2023-01-08T22:50:54.009Z,98940.63
2023-01-08T22:53:20.664Z,98935.69
2023-01-08T22:55:47.958Z,98932.31
2023-01-08T22:58:17.613Z,98933.47
2023-01-08T23:00:44.684Z,98930.97
2023-01-08T23:03:11.754Z,98923.22
2023-01-08T23:05:38.191Z,98923.25
2023-01-08T23:08:05.113Z,98915.34
2023-01-08T23:10:31.981Z,98927.47
2023-01-08T23:12:58.751Z,98926.22
2023-01-08T23:15:25.444Z,98926.25
2023-01-08T23:17:52.822Z,98936.94
2023-01-08T23:20:20.809Z,98920.16
2023-01-08T23:22:48.515Z,98925.19
2023-01-08T23:25:15.516Z,98920.66
2023-01-08T23:27:42.100Z,98929.31
2023-01-08T23:30:09.108Z,98927.94
2023-01-08T23:32:35.513Z,98927.28
2023-01-08T23:35:01.974Z,98914.72
2023-01-08T23:37:28.381Z,98905.44
2023-01-08T23:39:54.787Z,98908.09
2023-01-08T23:42:21.232Z,98905.94
2023-01-08T23:44:49.503Z,98903.78
2023-01-08T23:47:15.947Z,98895.25
2023-01-08T23:49:42.375Z,98896.06
2023-01-08T23:52:08.821Z,98892.38
2023-01-08T23:54:35.883Z,98884.44
2023-01-08T23:57:02.374Z,98890.56
2023-01-08T23:59:28.815Z,98886.00
